Time;durP1;ratioP1;P1;durP2;ratioP2;P2;SDS_P1;SDS_P2;PMS_P1;PMS_P2;Temp;Humidity;BMP_temperature;BMP_pressure;BME280_temperature;BME280_humidity;BME280_pressure;Samples;Min_cycle;Max_cycle;Signal;HPM_P1;HPM_P2
2023/12/21 00:02:08;;;;;;;0.30;0.20;;;;;;;8.83;100.00;99802.63;4987569;28;20453;-53
2023/12/21 00:04:35;;;;;;;0.30;0.20;;;;;;;8.86;100.00;99806.03;4979670;28;20879;-53
2023/12/21 00:07:02;;;;;;;0.30;0.20;;;;;;;8.89;100.00;99792.69;4985443;28;20476;-54
2023/12/21 00:09:28;;;;;;;0.30;0.20;;;;;;;8.88;100.00;99793.59;4984956;28;20473;-54
2023/12/21 00:11:56;;;;;;;0.30;0.20;;;;;;;8.80;100.00;99785.03;4991961;28;20888;-54
2023/12/21 00:14:23;;;;;;;0.30;0.20;;;;;;;8.78;100.00;99786.84;4978862;28;20458;-53
2023/12/21 00:16:50;;;;;;;0.30;0.20;;;;;;;8.78;100.00;99780.69;4986168;28;20514;-54
2023/12/21 00:19:16;;;;;;;0.30;0.20;;;;;;;8.80;100.00;99776.22;4994487;28;20477;-53
2023/12/21 00:21:43;;;;;;;0.30;0.20;;;;;;;8.67;100.00;99765.09;4980766;28;20458;-53
2023/12/21 00:24:09;;;;;;;0.30;0.20;;;;;;;8.73;100.00;99756.97;4989372;28;20963;-53
2023/12/21 00:26:36;;;;;;;0.30;0.20;;;;;;;8.71;100.00;99742.03;4983060;28;20493;-53
2023/12/21 00:29:02;;;;;;;0.30;0.20;;;;;;;8.67;100.00;99735.97;4982307;28;20492;-53
2023/12/21 00:31:29;;;;;;;0.30;0.20;;;;;;;8.80;100.00;99721.44;4988405;28;20462;-53
2023/12/21 00:33:55;;;;;;;0.30;0.20;;;;;;;8.71;100.00;99716.41;4989205;28;20424;-53
2023/12/21 00:36:22;;;;;;;0.30;0.20;;;;;;;8.74;100.00;99710.13;4983574;28;20459;-53
2023/12/21 00:38:48;;;;;;;0.30;0.20;;;;;;;8.81;100.00;99706.41;4981985;28;20878;-54
2023/12/21 00:41:15;;;;;;;0.40;0.40;;;;;;;8.83;100.00;99705.44;4991994;28;20457;-53
2023/12/21 00:43:41;;;;;;;0.30;0.20;;;;;;;8.76;100.00;99701.22;4994402;28;20428;-53
2023/12/21 00:46:08;;;;;;;0.30;0.20;;;;;;;8.74;100.00;99695.09;4983248;28;20817;-53
2023/12/21 00:48:34;;;;;;;0.30;0.20;;;;;;;8.70;100.00;99685.53;4994455;28;20453;-53
2023/12/21 00:51:01;;;;;;;0.30;0.20;;;;;;;8.73;100.00;99688.06;4983196;28;20461;-53
2023/12/21 00:53:27;;;;;;;0.30;0.20;;;;;;;8.72;100.00;99688.13;4982004;28;20428;-54
2023/12/21 00:55:54;;;;;;;0.30;0.20;;;;;;;8.75;100.00;99678.28;4987368;28;20450;-54
2023/12/21 00:58:21;;;;;;;0.30;0.20;;;;;;;8.74;100.00;99694.22;4988098;28;20493;-54
2023/12/21 01:00:47;;;;;;;0.30;0.20;;;;;;;8.83;100.00;99702.78;4990204;28;20457;-54
2023/12/21 01:03:14;;;;;;;0.30;0.20;;;;;;;8.77;100.00;99713.59;4981857;28;20450;-54
2023/12/21 01:05:40;;;;;;;0.30;0.20;;;;;;;8.84;100.00;99698.34;4986239;28;20901;-54
2023/12/21 01:08:07;;;;;;;0.30;0.20;;;;;;;8.89;100.00;99699.91;4988686;28;20458;-53
2023/12/21 01:10:37;;;;;;;0.30;0.20;;;;;;;8.87;100.00;99703.53;4992328;28;20465;-54
2023/12/21 01:13:06;;;;;;;0.30;0.20;;;;;;;8.80;100.00;99704.66;4991711;28;20450;-53
2023/12/21 01:15:32;;;;;;;0.30;0.20;;;;;;;8.81;100.00;99695.78;4984947;28;20467;-54
2023/12/21 01:17:59;;;;;;;0.30;0.20;;;;;;;8.87;100.00;99703.53;4988763;28;21080;-53
2023/12/21 01:20:25;;;;;;;0.30;0.20;;;;;;;8.85;100.00;99697.44;4984467;28;20898;-53
2023/12/21 01:22:52;;;;;;;0.30;0.20;;;;;;;8.94;100.00;99694.50;4988198;28;20491;-53
2023/12/21 01:25:18;;;;;;;0.30;0.20;;;;;;;8.88;100.00;99707.94;4984994;28;20428;-54
2023/12/21 01:27:44;;;;;;;0.30;0.20;;;;;;;8.97;100.00;99690.88;4981532;28;20446;-53
2023/12/21 01:30:11;;;;;;;0.30;0.20;;;;;;;8.96;100.00;99678.53;4983779;28;20482;-53
2023/12/21 01:32:38;;;;;;;0.30;0.20;;;;;;;9.06;100.00;99670.25;4988178;28;20516;-54
2023/12/21 01:35:05;;;;;;;0.30;0.20;;;;;;;8.98;100.00;99666.97;4985478;28;20477;-53
2023/12/21 01:37:31;;;;;;;0.30;0.20;;;;;;;9.07;100.00;99672.00;4980972;28;21073;-54
2023/12/21 01:39:58;;;;;;;0.30;0.20;;;;;;;9.12;100.00;99662.09;4999589;23;20919;-52
2023/12/21 01:42:24;;;;;;;0.30;0.20;;;;;;;9.08;100.00;99641.91;4973489;28;20471;-52
2023/12/21 01:44:50;;;;;;;0.30;0.20;;;;;;;9.18;100.00;99640.69;4958011;28;20489;-52
2023/12/21 01:47:17;;;;;;;0.30;0.20;;;;;;;9.25;100.00;99635.16;4973027;28;21022;-53
2023/12/21 01:49:45;;;;;;;0.30;0.20;;;;;;;9.22;100.00;99636.16;4975485;28;20929;-52
2023/12/21 01:52:11;;;;;;;0.30;0.20;;;;;;;9.17;100.00;99643.38;4962758;28;20802;-52
2023/12/21 01:54:39;;;;;;;0.30;0.20;;;;;;;9.13;100.00;99633.78;4965660;28;20798;-52
2023/12/21 01:57:05;;;;;;;0.30;0.20;;;;;;;9.03;100.00;99622.63;4974706;28;20454;-52
2023/12/21 01:59:32;;;;;;;0.30;0.20;;;;;;;9.08;100.00;99626.00;4976071;28;20474;-52
2023/12/21 02:01:59;;;;;;;0.30;0.20;;;;;;;9.09;100.00;99619.78;4975666;28;20536;-52
2023/12/21 02:04:26;;;;;;;0.30;0.20;;;;;;;9.05;100.00;99614.63;4978016;28;20446;-52
2023/12/21 02:06:52;;;;;;;0.30;0.20;;;;;;;9.16;100.00;99617.78;4977164;28;20518;-52
2023/12/21 02:09:19;;;;;;;0.30;0.20;;;;;;;9.05;100.00;99612.00;4975214;28;20524;-52
2023/12/21 02:11:46;;;;;;;0.30;0.20;;;;;;;9.09;100.00;99614.47;4975880;28;20755;-52
2023/12/21 02:14:13;;;;;;;0.30;0.20;;;;;;;9.21;100.00;99618.50;4975076;28;20537;-52
2023/12/21 02:16:56;;;;;;;0.30;0.20;;;;;;;9.15;100.00;99601.00;4969084;28;20534;-51
2023/12/21 02:19:23;;;;;;;0.30;0.20;;;;;;;9.22;100.00;99590.19;4969138;28;21021;-51
2023/12/21 02:21:54;;;;;;;0.30;0.20;;;;;;;9.34;100.00;99581.81;4974366;28;20459;-52
2023/12/21 02:24:21;;;;;;;0.30;0.20;;;;;;;9.30;100.00;99573.09;4974793;28;20893;-52
2023/12/21 02:26:47;;;;;;;0.30;0.20;;;;;;;9.26;100.00;99562.66;4974419;28;20546;-52
2023/12/21 02:29:13;;;;;;;0.30;0.20;;;;;;;9.33;100.00;99553.56;4958172;28;20575;-52
2023/12/21 02:31:40;;;;;;;0.30;0.20;;;;;;;9.34;100.00;99552.66;4960857;28;20463;-52
2023/12/21 02:34:06;;;;;;;0.30;0.20;;;;;;;9.21;100.00;99552.22;4956970;28;20542;-52
2023/12/21 02:36:34;;;;;;;0.30;0.20;;;;;;;9.25;100.00;99561.78;4974832;28;20513;-52
2023/12/21 02:39:01;;;;;;;0.30;0.20;;;;;;;9.25;100.00;99556.47;4972498;28;21416;-52
2023/12/21 02:41:27;;;;;;;0.30;0.20;;;;;;;9.30;100.00;99551.00;4962930;28;20537;-52
2023/12/21 02:43:54;;;;;;;0.30;0.20;;;;;;;9.27;100.00;99551.97;4975809;28;20509;-51
2023/12/21 02:46:26;;;;;;;0.30;0.20;;;;;;;9.26;100.00;99544.09;4958454;28;20467;-52
2023/12/21 02:48:53;;;;;;;0.30;0.20;;;;;;;9.30;100.00;99540.41;4972558;28;20447;-52
2023/12/21 02:51:19;;;;;;;0.30;0.20;;;;;;;9.31;100.00;99528.88;4974804;28;20451;-51
2023/12/21 02:53:46;;;;;;;0.30;0.20;;;;;;;9.34;100.00;99547.34;4958320;28;20463;-52
2023/12/21 02:56:12;;;;;;;0.30;0.20;;;;;;;9.33;100.00;99549.13;4954659;28;20491;-52
2023/12/21 02:58:39;;;;;;;0.30;0.20;;;;;;;9.38;100.00;99533.03;4970478;28;20605;-51
2023/12/21 03:01:06;;;;;;;0.30;0.20;;;;;;;9.50;100.00;99543.22;4963253;28;20471;-52
2023/12/21 03:03:33;;;;;;;0.30;0.20;;;;;;;9.54;100.00;99533.34;4954248;28;20458;-52
2023/12/21 03:05:59;;;;;;;0.30;0.20;;;;;;;9.40;100.00;99526.75;4964632;28;20983;-52
2023/12/21 03:08:26;;;;;;;0.30;0.20;;;;;;;9.48;100.00;99522.06;4973547;28;20457;-52
2023/12/21 03:10:52;;;;;;;0.30;0.20;;;;;;;9.53;100.00;99531.63;4973677;28;20486;-52
2023/12/21 03:13:18;;;;;;;0.30;0.20;;;;;;;9.43;100.00;99528.44;4973147;28;20550;-52
2023/12/21 03:15:45;;;;;;;0.30;0.20;;;;;;;9.48;100.00;99540.63;4973074;28;20454;-52
2023/12/21 03:18:12;;;;;;;0.30;0.20;;;;;;;9.47;100.00;99541.53;4969077;28;20495;-52
2023/12/21 03:20:38;;;;;;;0.30;0.20;;;;;;;9.53;100.00;99527.19;4954413;28;20510;-52
2023/12/21 03:23:05;;;;;;;0.30;0.20;;;;;;;9.59;100.00;99515.47;4968088;28;20458;-52
2023/12/21 03:25:32;;;;;;;0.30;0.20;;;;;;;9.55;100.00;99513.84;4968950;28;20437;-52
2023/12/21 03:27:59;;;;;;;0.30;0.20;;;;;;;9.56;100.00;99505.84;4959729;28;20434;-52
2023/12/21 03:30:26;;;;;;;0.30;0.20;;;;;;;9.57;100.00;99502.25;4957130;28;20453;-52
2023/12/21 03:32:52;;;;;;;0.30;0.20;;;;;;;9.52;100.00;99488.31;4972211;28;20473;-51
2023/12/21 03:35:19;;;;;;;0.30;0.20;;;;;;;9.66;100.00;99482.50;4973841;28;20450;-52
2023/12/21 03:37:46;;;;;;;0.30;0.20;;;;;;;9.52;100.00;99492.75;4968378;28;20524;-51
2023/12/21 03:40:12;;;;;;;0.30;0.20;;;;;;;9.61;100.00;99477.38;4973053;28;20995;-51
2023/12/21 03:42:39;;;;;;;0.30;0.20;;;;;;;9.57;100.00;99475.72;4973296;28;20518;-52
2023/12/21 03:45:06;;;;;;;0.30;0.20;;;;;;;9.68;100.00;99468.22;4966766;28;20437;-55
2023/12/21 03:47:32;;;;;;;0.30;0.20;;;;;;;9.58;100.00;99455.38;4971254;28;20490;-51
2023/12/21 03:49:59;;;;;;;0.30;0.20;;;;;;;9.79;100.00;99450.13;4978547;28;20557;-51
2023/12/21 03:52:25;;;;;;;0.30;0.20;;;;;;;9.65;100.00;99439.16;4959791;28;20433;-51
2023/12/21 03:54:52;;;;;;;0.30;0.20;;;;;;;9.60;100.00;99442.94;4964561;28;21135;-51
2023/12/21 03:57:18;;;;;;;0.30;0.20;;;;;;;9.58;100.00;99439.44;4972138;28;20493;-52
2023/12/21 03:59:45;;;;;;;0.30;0.20;;;;;;;9.65;100.00;99433.00;4976953;28;20465;-50
2023/12/21 04:02:11;;;;;;;0.30;0.20;;;;;;;9.65;100.00;99431.22;4963218;28;20470;-51
2023/12/21 04:04:37;;;;;;;0.30;0.20;;;;;;;9.59;100.00;99433.22;4963344;28;20983;-51
2023/12/21 04:07:04;;;;;;;0.30;0.20;;;;;;;9.56;100.00;99452.78;4977523;28;20480;-50
2023/12/21 04:09:31;;;;;;;0.30;0.20;;;;;;;9.80;100.00;99448.31;4976025;28;21010;-51
2023/12/21 04:11:57;;;;;;;0.30;0.20;;;;;;;9.79;100.00;99444.81;4976529;28;20541;-51
2023/12/21 04:14:24;;;;;;;0.30;0.20;;;;;;;9.77;100.00;99424.56;4970780;28;20472;-52
2023/12/21 04:16:50;;;;;;;0.30;0.20;;;;;;;9.74;100.00;99411.41;4968424;28;20463;-51
2023/12/21 04:19:18;;;;;;;0.30;0.20;;;;;;;9.69;100.00;99416.88;4976175;28;20541;-51
2023/12/21 04:21:45;;;;;;;0.30;0.20;;;;;;;9.63;100.00;99403.00;4969180;28;20546;-51
2023/12/21 04:24:11;;;;;;;0.30;0.20;;;;;;;9.76;100.00;99394.50;4972461;28;20545;-52
2023/12/21 04:26:38;;;;;;;0.30;0.20;;;;;;;9.84;100.00;99377.41;4964024;28;20467;-51
2023/12/21 04:29:04;;;;;;;0.30;0.20;;;;;;;9.89;100.00;99368.34;4971382;28;20454;-51
2023/12/21 04:31:31;;;;;;;0.30;0.20;;;;;;;9.90;100.00;99363.91;4976698;28;20480;-51
2023/12/21 04:33:58;;;;;;;0.30;0.20;;;;;;;9.88;100.00;99348.03;4976246;28;20456;-51
2023/12/21 04:36:24;;;;;;;0.30;0.20;;;;;;;9.83;100.00;99346.47;4968523;28;20983;-51
2023/12/21 04:38:52;;;;;;;0.30;0.20;;;;;;;9.84;100.00;99348.19;4971560;28;20525;-51
2023/12/21 04:41:19;;;;;;;0.30;0.20;;;;;;;9.87;100.00;99345.41;4976073;28;20488;-51
2023/12/21 04:43:46;;;;;;;0.30;0.20;;;;;;;9.92;100.00;99346.97;4974508;28;20512;-51
2023/12/21 04:46:12;;;;;;;0.30;0.20;;;;;;;9.95;100.00;99341.53;4963728;28;20520;-51
2023/12/21 04:48:39;;;;;;;0.30;0.20;;;;;;;9.96;100.00;99329.97;4976289;28;20446;-51
2023/12/21 04:51:05;;;;;;;0.30;0.20;;;;;;;9.99;100.00;99344.91;4976102;28;20509;-51
2023/12/21 04:53:32;;;;;;;0.30;0.20;;;;;;;9.94;100.00;99338.94;4961403;28;20995;-51
2023/12/21 04:55:58;;;;;;;0.30;0.20;;;;;;;9.87;100.00;99329.50;4964813;28;20517;-52
2023/12/21 04:58:25;;;;;;;0.30;0.20;;;;;;;10.23;100.00;99311.19;4975766;28;21030;-52
2023/12/21 05:00:51;;;;;;;0.30;0.20;;;;;;;10.04;100.00;99311.09;4976021;28;20529;-51
2023/12/21 05:03:19;;;;;;;0.30;0.20;;;;;;;10.11;100.00;99317.84;4959294;28;20961;-51
2023/12/21 05:05:46;;;;;;;0.30;0.20;;;;;;;10.14;100.00;99311.53;4965934;28;20990;-51
2023/12/21 05:08:13;;;;;;;0.30;0.20;;;;;;;9.90;100.00;99308.16;4962603;28;20458;-51
2023/12/21 05:10:40;;;;;;;0.30;0.20;;;;;;;9.93;100.00;99308.88;5010397;28;20517;-51
2023/12/21 05:13:07;;;;;;;0.30;0.20;;;;;;;9.94;100.00;99293.81;4979049;28;20454;-51
2023/12/21 05:15:34;;;;;;;0.30;0.20;;;;;;;10.02;100.00;99305.00;4975808;28;20442;-51
2023/12/21 05:18:00;;;;;;;0.30;0.20;;;;;;;9.99;100.00;99305.09;4972009;28;20485;-51
2023/12/21 05:20:27;;;;;;;0.30;0.20;;;;;;;9.98;100.00;99306.03;4966366;28;20474;-51
2023/12/21 05:22:53;;;;;;;0.30;0.20;;;;;;;10.14;100.00;99300.91;4962517;28;20537;-51
2023/12/21 05:25:25;;;;;;;0.30;0.20;;;;;;;10.13;100.00;99296.53;4975697;28;20446;-51
2023/12/21 05:27:52;;;;;;;0.30;0.20;;;;;;;10.04;100.00;99287.19;4975782;28;20509;-51
2023/12/21 05:30:18;;;;;;;0.30;0.20;;;;;;;10.04;100.00;99285.41;4975443;28;20561;-51
2023/12/21 05:32:46;;;;;;;0.30;0.20;;;;;;;10.09;100.00;99285.19;4975568;28;21145;-51
2023/12/21 05:35:13;;;;;;;0.30;0.20;;;;;;;10.02;100.00;99276.66;4975341;28;20483;-51
2023/12/21 05:37:40;;;;;;;0.30;0.20;;;;;;;10.08;100.00;99278.16;4969602;28;20425;-51
2023/12/21 05:40:08;;;;;;;0.30;0.20;;;;;;;10.10;100.00;99269.19;4968041;28;20853;-51
2023/12/21 05:42:35;;;;;;;0.30;0.20;;;;;;;10.14;100.00;99261.97;4974803;28;20442;-51
2023/12/21 05:45:01;;;;;;;0.30;0.20;;;;;;;10.19;100.00;99246.72;4975314;28;20573;-52
2023/12/21 05:47:28;;;;;;;0.30;0.20;;;;;;;10.22;100.00;99251.03;4961500;28;20537;-51
2023/12/21 05:49:55;;;;;;;0.30;0.20;;;;;;;10.02;100.00;99249.25;4975037;28;20955;-51
2023/12/21 05:52:21;;;;;;;0.30;0.20;;;;;;;10.12;100.00;99253.19;4962512;28;20450;-51
2023/12/21 05:54:48;;;;;;;0.30;0.20;;;;;;;10.23;100.00;99247.47;4975041;28;20993;-51
2023/12/21 05:57:15;;;;;;;0.30;0.20;;;;;;;10.24;100.00;99244.72;4974048;28;20962;-51
2023/12/21 05:59:42;;;;;;;0.30;0.20;;;;;;;10.19;100.00;99244.06;4975515;28;20532;-52
2023/12/21 06:02:08;;;;;;;0.30;0.20;;;;;;;10.28;100.00;99237.47;4968253;28;20517;-52
2023/12/21 06:04:35;;;;;;;0.30;0.20;;;;;;;10.43;100.00;99246.59;4968892;28;20454;-52
2023/12/21 06:07:02;;;;;;;0.30;0.20;;;;;;;10.41;100.00;99245.78;4974987;28;20428;-52
2023/12/21 06:09:28;;;;;;;0.30;0.20;;;;;;;10.31;100.00;99235.56;4969163;28;21003;-52
2023/12/21 06:11:55;;;;;;;0.30;0.20;;;;;;;10.42;100.00;99234.25;4962339;28;20504;-51
2023/12/21 06:14:21;;;;;;;0.30;0.20;;;;;;;10.32;99.90;99239.09;4962033;28;20434;-52
2023/12/21 06:16:48;;;;;;;0.30;0.20;;;;;;;10.46;99.90;99235.81;4961106;28;20489;-51
2023/12/21 06:19:15;;;;;;;0.30;0.20;;;;;;;10.30;100.00;99233.00;4974453;28;20920;-51
2023/12/21 06:21:42;;;;;;;0.30;0.20;;;;;;;10.16;100.00;99224.75;4962202;28;20462;-51
2023/12/21 06:24:09;;;;;;;0.30;0.20;;;;;;;10.32;100.00;99212.53;4975595;28;20936;-52
2023/12/21 06:26:42;;;;;;;0.30;0.20;;;;;;;10.31;100.00;99197.53;4961619;28;20549;-51
2023/12/21 06:29:09;;;;;;;0.30;0.20;;;;;;;10.28;100.00;99190.56;4974130;28;20477;-51
2023/12/21 06:31:36;;;;;;;0.30;0.20;;;;;;;10.19;100.00;99190.06;4972877;28;20542;-51
2023/12/21 06:34:03;;;;;;;0.30;0.20;;;;;;;10.31;100.00;99179.81;4961238;28;20888;-51
2023/12/21 06:36:31;;;;;;;0.30;0.20;;;;;;;10.28;100.00;99171.97;4974407;28;20461;-52
2023/12/21 06:38:58;;;;;;;0.30;0.20;;;;;;;10.31;100.00;99174.50;4959264;28;20522;-51
2023/12/21 06:41:24;;;;;;;0.30;0.20;;;;;;;10.27;100.00;99170.22;4963098;28;20465;-51
2023/12/21 06:43:51;;;;;;;0.30;0.20;;;;;;;10.39;100.00;99156.38;4973624;28;20877;-51
2023/12/21 06:46:18;;;;;;;0.30;0.20;;;;;;;10.30;100.00;99148.00;4973893;28;20541;-52
2023/12/21 06:48:44;;;;;;;0.30;0.20;;;;;;;10.19;100.00;99152.91;4971882;28;20533;-52
2023/12/21 06:51:12;;;;;;;0.30;0.20;;;;;;;10.18;100.00;99160.00;4962768;28;20988;-51
2023/12/21 06:53:39;;;;;;;0.30;0.20;;;;;;;10.24;100.00;99153.56;4973594;28;20958;-51
2023/12/21 06:56:06;;;;;;;0.30;0.20;;;;;;;10.17;100.00;99154.78;4973828;28;20525;-51
2023/12/21 06:58:53;;;;;;;0.30;0.20;;;;;;;10.20;100.00;99158.13;4960902;28;20494;-51
2023/12/21 07:01:26;;;;;;;0.30;0.20;;;;;;;10.29;100.00;99168.38;4974250;28;20450;-52
2023/12/21 07:03:54;;;;;;;0.30;0.20;;;;;;;10.38;100.00;99161.78;4974038;28;20478;-51
2023/12/21 07:06:22;;;;;;;0.30;0.20;;;;;;;10.35;100.00;99151.28;4960929;28;20825;-52
2023/12/21 07:08:48;;;;;;;0.30;0.20;;;;;;;10.29;100.00;99164.88;4973790;28;20458;-51
2023/12/21 07:11:17;;;;;;;0.30;0.20;;;;;;;10.41;100.00;99166.06;4973357;28;20474;-51
2023/12/21 07:13:44;;;;;;;0.30;0.20;;;;;;;10.36;100.00;99159.19;4965185;28;20953;-52
2023/12/21 07:16:11;;;;;;;0.30;0.20;;;;;;;10.32;100.00;99154.09;4969195;28;20436;-52
2023/12/21 07:18:38;;;;;;;0.30;0.20;;;;;;;10.21;100.00;99156.34;4966405;28;20962;-51
2023/12/21 07:21:05;;;;;;;0.30;0.20;;;;;;;10.27;100.00;99153.44;4990315;28;20984;-52
2023/12/21 07:23:32;;;;;;;0.30;0.20;;;;;;;10.12;100.00;99141.69;4962929;28;20481;-51
2023/12/21 07:25:59;;;;;;;0.30;0.20;;;;;;;10.24;100.00;99132.31;4973094;28;20493;-52
2023/12/21 07:28:28;;;;;;;0.30;0.20;;;;;;;10.16;100.00;99134.47;4973482;28;20458;-52
2023/12/21 07:30:55;;;;;;;0.30;0.20;;;;;;;10.27;100.00;99126.88;4970456;28;20995;-51
2023/12/21 07:33:21;;;;;;;0.30;0.20;;;;;;;10.53;100.00;99133.63;4962463;28;20470;-51
2023/12/21 07:35:48;;;;;;;0.30;0.20;;;;;;;10.24;100.00;99119.91;4973488;28;20916;-52
2023/12/21 07:38:14;;;;;;;0.30;0.20;;;;;;;10.28;100.00;99116.19;4963596;28;20526;-52
2023/12/21 07:40:41;;;;;;;0.30;0.20;;;;;;;10.28;100.00;99118.84;4969586;28;21090;-51
2023/12/21 07:43:07;;;;;;;0.30;0.20;;;;;;;10.39;100.00;99097.94;4973355;28;20813;-51
2023/12/21 07:45:34;;;;;;;0.30;0.20;;;;;;;10.42;100.00;99089.00;4960027;28;20930;-51
2023/12/21 07:48:00;;;;;;;0.30;0.20;;;;;;;10.43;100.00;99093.38;4973166;28;20885;-51
2023/12/21 07:50:28;;;;;;;0.30;0.20;;;;;;;10.52;100.00;99094.72;4956793;28;20475;-51
2023/12/21 07:52:56;;;;;;;0.30;0.20;;;;;;;10.55;100.00;99084.81;4963685;28;20914;-50
2023/12/21 07:55:23;;;;;;;0.30;0.20;;;;;;;10.59;99.20;99069.59;4973022;28;20450;-50
2023/12/21 07:57:50;;;;;;;0.30;0.20;;;;;;;10.46;100.00;99076.41;4962634;28;20426;-51
2023/12/21 08:00:16;;;;;;;0.30;0.20;;;;;;;10.60;99.93;99071.31;4966999;28;20499;-51
2023/12/21 08:02:45;;;;;;;0.30;0.20;;;;;;;10.47;100.00;99072.81;4964519;28;20459;-50
2023/12/21 08:05:12;;;;;;;0.30;0.20;;;;;;;10.49;99.91;99074.47;4973369;28;20461;-51
2023/12/21 08:07:40;;;;;;;0.30;0.20;;;;;;;10.63;100.00;99060.53;4973006;28;20488;-50
2023/12/21 08:10:07;;;;;;;0.30;0.20;;;;;;;10.60;99.49;99055.38;4972911;28;20996;-51
2023/12/21 08:12:37;;;;;;;0.30;0.20;;;;;;;10.53;99.45;99060.09;4973028;28;20517;-50
2023/12/21 08:15:04;;;;;;;0.30;0.20;;;;;;;10.68;100.00;99062.00;4959935;28;20824;-50
2023/12/21 08:17:31;;;;;;;0.30;0.20;;;;;;;10.70;99.59;99067.28;4973064;28;20479;-50
2023/12/21 08:19:58;;;;;;;0.30;0.20;;;;;;;10.74;99.88;99055.53;4972868;28;20494;-50
2023/12/21 08:22:24;;;;;;;0.30;0.20;;;;;;;10.68;99.53;99040.75;4960987;28;20486;-51
2023/12/21 08:24:56;;;;;;;0.30;0.20;;;;;;;10.68;99.95;99042.53;4973291;28;20454;-51
2023/12/21 08:27:23;;;;;;;0.30;0.20;;;;;;;10.71;99.67;99039.75;4972825;28;20537;-50
2023/12/21 08:29:51;;;;;;;0.30;0.20;;;;;;;10.74;99.41;99017.47;4972974;28;20448;-50
2023/12/21 08:32:18;;;;;;;0.30;0.20;;;;;;;10.73;99.75;99027.25;4971979;28;20557;-50
2023/12/21 08:34:44;;;;;;;0.30;0.20;;;;;;;10.79;100.00;99018.09;4961048;28;20481;-50
2023/12/21 08:37:12;;;;;;;0.30;0.20;;;;;;;10.94;99.02;99012.00;4972931;28;20458;-51
2023/12/21 08:39:39;;;;;;;0.30;0.20;;;;;;;10.85;99.46;99000.06;4974727;28;20509;-51
2023/12/21 08:42:10;;;;;;;0.30;0.20;;;;;;;10.77;99.13;98982.78;4963529;28;20522;-51
2023/12/21 08:44:37;;;;;;;0.30;0.20;;;;;;;10.89;98.83;98979.50;4968593;28;20447;-51
2023/12/21 08:47:05;;;;;;;0.30;0.20;;;;;;;10.92;98.50;98977.53;4972316;28;20425;-50
2023/12/21 08:49:31;;;;;;;0.30;0.20;;;;;;;10.83;98.12;98970.03;4967507;28;20467;-51
2023/12/21 08:51:58;;;;;;;0.30;0.20;;;;;;;11.02;98.58;98977.94;4972362;28;20516;-50
2023/12/21 08:54:25;;;;;;;0.30;0.20;;;;;;;11.00;99.08;98977.16;4976367;28;20822;-50
2023/12/21 08:56:51;;;;;;;0.30;0.20;;;;;;;10.95;98.56;98969.38;4963190;28;20455;-50
2023/12/21 08:59:18;;;;;;;0.30;0.20;;;;;;;11.09;98.63;98947.41;4975990;28;20960;-51
2023/12/21 09:01:45;;;;;;;0.30;0.20;;;;;;;11.07;98.39;98948.44;4973595;28;20451;-51
2023/12/21 09:04:12;;;;;;;0.30;0.20;;;;;;;10.98;99.11;98933.84;4956873;28;20902;-49
2023/12/21 09:06:39;;;;;;;0.30;0.20;;;;;;;10.96;99.08;98915.31;4957113;28;20465;-51
2023/12/21 09:09:05;;;;;;;0.30;0.20;;;;;;;10.99;99.12;98908.97;4966125;28;20460;-51
2023/12/21 09:11:32;;;;;;;0.30;0.20;;;;;;;11.16;98.40;98905.41;4976074;28;20489;-50
2023/12/21 09:13:58;;;;;;;0.30;0.20;;;;;;;11.10;98.74;98901.28;4975881;28;20537;-51
2023/12/21 09:16:24;;;;;;;0.30;0.20;;;;;;;11.13;98.82;98894.94;4962822;28;20522;-51
2023/12/21 09:18:54;;;;;;;0.30;0.20;;;;;;;11.20;98.85;98905.16;4999673;28;20424;-51
2023/12/21 09:21:21;;;;;;;0.30;0.20;;;;;;;11.25;98.56;98907.59;4975820;28;20911;-51
2023/12/21 09:23:48;;;;;;;0.30;0.20;;;;;;;11.22;97.81;98894.44;4965501;28;20544;-50
2023/12/21 09:26:14;;;;;;;0.30;0.20;;;;;;;11.23;98.09;98870.41;4960927;28;20478;-50
2023/12/21 09:28:41;;;;;;;0.30;0.20;;;;;;;11.30;97.14;98870.94;4975166;28;20898;-50
2023/12/21 09:31:08;;;;;;;0.30;0.20;;;;;;;11.44;96.55;98862.22;4970274;28;20483;-50
2023/12/21 09:33:36;;;;;;;0.30;0.20;;;;;;;11.39;96.28;98848.31;4956159;28;20491;-50
2023/12/21 09:36:04;;;;;;;0.30;0.20;;;;;;;11.43;96.55;98837.41;4974488;28;20426;-50
2023/12/21 09:38:31;;;;;;;0.30;0.20;;;;;;;11.41;96.79;98838.44;4975082;28;20461;-51
2023/12/21 09:40:59;;;;;;;0.30;0.20;;;;;;;11.49;96.28;98828.22;4967854;28;20490;-51
2023/12/21 09:43:27;;;;;;;0.30;0.20;;;;;;;11.57;96.11;98816.19;4967889;28;20454;-51
2023/12/21 09:45:56;;;;;;;0.30;0.20;;;;;;;11.48;96.24;98816.72;4974648;28;20922;-51
2023/12/21 09:48:25;;;;;;;0.30;0.20;;;;;;;11.46;96.38;98823.06;4975102;28;20512;-50
2023/12/21 09:50:52;;;;;;;0.30;0.20;;;;;;;11.45;95.47;98819.53;4966565;28;20851;-50
2023/12/21 09:53:22;;;;;;;0.30;0.20;;;;;;;11.48;95.43;98818.50;4969092;28;20959;-51
2023/12/21 09:55:50;;;;;;;0.30;0.20;;;;;;;11.60;95.16;98816.97;4974782;28;20523;-51
2023/12/21 09:58:18;;;;;;;0.30;0.20;;;;;;;11.63;95.65;98816.78;4961679;28;20810;-50
2023/12/21 10:00:45;;;;;;;0.30;0.20;;;;;;;11.62;95.40;98791.13;4974713;28;20477;-51
2023/12/21 10:03:11;;;;;;;0.30;0.20;;;;;;;11.61;95.39;98778.75;4974733;28;20545;-51
2023/12/21 10:05:40;;;;;;;0.30;0.20;;;;;;;11.71;95.32;98786.13;4966500;28;20441;-51
2023/12/21 10:08:07;;;;;;;0.30;0.20;;;;;;;11.59;95.45;98784.19;4968515;28;20442;-51
2023/12/21 10:10:35;;;;;;;0.30;0.20;;;;;;;11.70;96.04;98768.47;4971860;28;20462;-51
2023/12/21 10:13:02;;;;;;;0.30;0.20;;;;;;;11.58;95.45;98769.16;4959374;28;20787;-51
2023/12/21 10:15:35;;;;;;;0.30;0.20;;;;;;;11.60;95.91;98763.75;4964297;28;20817;-51
2023/12/21 10:18:05;;;;;;;0.30;0.20;;;;;;;11.70;95.83;98760.47;4974530;28;20460;-53
2023/12/21 10:20:32;;;;;;;0.30;0.20;;;;;;;11.70;96.27;98762.28;4963932;28;20585;-52
2023/12/21 10:22:58;;;;;;;0.30;0.20;;;;;;;11.57;96.14;98756.81;4972170;28;20982;-52
2023/12/21 10:25:25;;;;;;;0.30;0.20;;;;;;;11.67;96.26;98763.31;4974719;28;20544;-52
2023/12/21 10:27:56;;;;;;;0.30;0.20;;;;;;;11.62;96.61;98757.38;4961186;28;20436;-54
2023/12/21 10:30:26;;;;;;;0.30;0.20;;;;;;;11.67;96.38;98758.00;4974034;28;20528;-53
2023/12/21 10:32:56;;;;;;;0.30;0.20;;;;;;;11.62;96.24;98751.19;4968905;28;20455;-53
2023/12/21 10:35:25;;;;;;;0.30;0.20;;;;;;;11.53;97.25;98728.66;4966213;28;20450;-53
2023/12/21 10:37:52;;;;;;;0.30;0.20;;;;;;;11.52;97.03;98735.78;4961348;28;20437;-53
2023/12/21 10:40:19;;;;;;;0.30;0.20;;;;;;;11.64;96.62;98728.88;4960889;28;21004;-55
2023/12/21 10:42:49;;;;;;;0.30;0.20;;;;;;;11.69;96.67;98741.94;4961285;28;20532;-53
2023/12/21 10:45:18;;;;;;;0.30;0.20;;;;;;;11.56;97.24;98733.81;4973337;28;20460;-52
2023/12/21 10:48:22;;;;;;;0.30;0.20;;;;;;;11.57;97.45;98736.38;4965108;28;20457;-52
2023/12/21 10:50:52;;;;;;;0.30;0.20;;;;;;;11.61;97.33;98730.84;4967764;28;20467;-52
2023/12/21 10:53:22;;;;;;;0.30;0.20;;;;;;;11.57;97.05;98724.88;4966429;28;20461;-52
2023/12/21 10:55:50;;;;;;;0.30;0.20;;;;;;;11.61;97.15;98718.41;4961275;28;20916;-52
2023/12/21 10:58:18;;;;;;;0.30;0.20;;;;;;;11.63;96.22;98715.66;4960297;28;20465;-52
2023/12/21 11:00:46;;;;;;;0.30;0.20;;;;;;;11.76;96.27;98708.66;4961955;28;20502;-51
2023/12/21 11:03:19;;;;;;;0.30;0.20;;;;;;;11.73;96.14;98709.72;4991870;28;20524;-52
2023/12/21 11:05:46;;;;;;;0.30;0.20;;;;;;;11.67;97.08;98694.13;4961983;28;20517;-52
2023/12/21 11:08:12;;;;;;;0.30;0.20;;;;;;;11.72;96.84;98696.50;4991090;28;20453;-51
2023/12/21 11:10:40;;;;;;;0.30;0.20;;;;;;;11.73;96.85;98676.91;4970398;28;20501;-51
2023/12/21 11:13:07;;;;;;;0.30;0.20;;;;;;;11.80;96.65;98681.84;4973424;28;20421;-51
2023/12/21 11:15:34;;;;;;;0.30;0.20;;;;;;;11.57;97.17;98663.66;4962611;28;20458;-52
2023/12/21 11:18:06;;;;;;;0.30;0.20;;;;;;;11.64;96.93;98662.34;4970376;28;20447;-52
2023/12/21 11:20:40;;;;;;;0.30;0.20;;;;;;;11.69;97.21;98664.75;4963285;28;20477;-52
2023/12/21 11:23:14;;;;;;;0.30;0.20;;;;;;;11.65;96.82;98661.41;4972555;28;20455;-51
2023/12/21 11:25:41;;;;;;;0.30;0.20;;;;;;;11.76;96.71;98655.44;4961003;28;20494;-53
2023/12/21 11:28:08;;;;;;;0.30;0.20;;;;;;;11.73;96.89;98656.47;4967021;28;20451;-52
2023/12/21 11:30:35;;;;;;;0.30;0.20;;;;;;;11.67;96.31;98632.03;4966339;28;20470;-52
2023/12/21 11:33:07;;;;;;;0.30;0.20;;;;;;;11.73;96.28;98619.22;4973182;28;20449;-52